Southampton, Canada
Current Conditions -  °F | °C
As of 11:00 AM on Monday 26 Jan 2015 (Local Time) from CYVV Reporting Station
Few Clouds Few Clouds  
Wind Chill: -1°   Ceiling: Unl
Heat Index: 12°   Visibility: 15mi
Dew Point:   Wind: 10mph
Humidity: 73%   Direction: 80°E
Pressure: 30.02"   Gusts: 17mph
Location:  44.5°N, 81.37°W
Report Text: CYVV 261600Z 08009G15KT 15SM FEW025 FEW250 M11/M15 A3002 RMK SC1CI1 CI TR SLP184
Loading
Personal Weather Stations






























Interactive Weather Map New forecast layout! Learn more

10-Day Weather Forecast

Advertisements
Track Severe Weather on mobile